sensor_id;sensor_type;location;lat;lon;timestamp;P1;durP1;ratioP1;P2;durP2;ratioP2
16460;SDS011;8341;42.048;24.650;2023-04-03T00:00:32;1.05;;;0.30;;
16460;SDS011;8341;42.048;24.650;2023-04-03T00:03:00;3.08;;;0.50;;
16460;SDS011;8341;42.048;24.650;2023-04-03T00:05:26;1.02;;;0.40;;
16460;SDS011;8341;42.048;24.650;2023-04-03T00:07:55;1.75;;;0.43;;
16460;SDS011;8341;42.048;24.650;2023-04-03T00:10:22;0.43;;;0.43;;
16460;SDS011;8341;42.048;24.650;2023-04-03T00:12:49;1.17;;;0.65;;
16460;SDS011;8341;42.048;24.650;2023-04-03T00:15:16;0.45;;;0.40;;
16460;SDS011;8341;42.048;24.650;2023-04-03T00:17:43;0.85;;;0.52;;
16460;SDS011;8341;42.048;24.650;2023-04-03T00:20:10;0.85;;;0.70;;
16460;SDS011;8341;42.048;24.650;2023-04-03T00:22:37;1.02;;;0.68;;
16460;SDS011;8341;42.048;24.650;2023-04-03T00:25:07;0.50;;;0.50;;
16460;SDS011;8341;42.048;24.650;2023-04-03T00:27:35;1.38;;;0.60;;
16460;SDS011;8341;42.048;24.650;2023-04-03T00:30:03;1.00;;;0.80;;
16460;SDS011;8341;42.048;24.650;2023-04-03T00:32:31;0.60;;;0.60;;
16460;SDS011;8341;42.048;24.650;2023-04-03T00:34:58;1.17;;;1.00;;
16460;SDS011;8341;42.048;24.650;2023-04-03T00:37:25;1.27;;;0.70;;
16460;SDS011;8341;42.048;24.650;2023-04-03T00:39:52;0.88;;;0.60;;
16460;SDS011;8341;42.048;24.650;2023-04-03T00:42:21;1.38;;;1.00;;
16460;SDS011;8341;42.048;24.650;2023-04-03T00:47:50;0.63;;;0.63;;
16460;SDS011;8341;42.048;24.650;2023-04-03T00:50:17;1.08;;;0.60;;
16460;SDS011;8341;42.048;24.650;2023-04-03T00:52:45;1.83;;;0.50;;
16460;SDS011;8341;42.048;24.650;2023-04-03T00:55:14;2.08;;;0.43;;
16460;SDS011;8341;42.048;24.650;2023-04-03T00:57:43;0.60;;;0.60;;
16460;SDS011;8341;42.048;24.650;2023-04-03T01:00:13;0.63;;;0.57;;
16460;SDS011;8341;42.048;24.650;2023-04-03T01:02:42;0.70;;;0.70;;
16460;SDS011;8341;42.048;24.650;2023-04-03T01:05:10;1.75;;;0.60;;
16460;SDS011;8341;42.048;24.650;2023-04-03T01:07:38;1.27;;;0.60;;
16460;SDS011;8341;42.048;24.650;2023-04-03T01:10:06;0.60;;;0.55;;
16460;SDS011;8341;42.048;24.650;2023-04-03T01:12:39;0.95;;;0.85;;
16460;SDS011;8341;42.048;24.650;2023-04-03T01:15:10;0.40;;;0.40;;
16460;SDS011;8341;42.048;24.650;2023-04-03T01:17:42;0.50;;;0.50;;
16460;SDS011;8341;42.048;24.650;2023-04-03T01:23:25;1.23;;;0.70;;
16460;SDS011;8341;42.048;24.650;2023-04-03T01:25:59;0.70;;;0.70;;
16460;SDS011;8341;42.048;24.650;2023-04-03T01:28:27;0.30;;;0.30;;
16460;SDS011;8341;42.048;24.650;2023-04-03T01:30:58;0.55;;;0.43;;
16460;SDS011;8341;42.048;24.650;2023-04-03T01:33:33;1.45;;;0.50;;
16460;SDS011;8341;42.048;24.650;2023-04-03T01:36:01;0.90;;;0.60;;
16460;SDS011;8341;42.048;24.650;2023-04-03T01:38:28;0.40;;;0.40;;
16460;SDS011;8341;42.048;24.650;2023-04-03T01:40:56;0.40;;;0.40;;
16460;SDS011;8341;42.048;24.650;2023-04-03T01:43:23;0.50;;;0.43;;
16460;SDS011;8341;42.048;24.650;2023-04-03T01:45:50;1.10;;;0.40;;
16460;SDS011;8341;42.048;24.650;2023-04-03T01:48:19;0.45;;;0.32;;
16460;SDS011;8341;42.048;24.650;2023-04-03T01:50:48;1.60;;;0.50;;
16460;SDS011;8341;42.048;24.650;2023-04-03T01:53:15;2.03;;;0.60;;
16460;SDS011;8341;42.048;24.650;2023-04-03T01:55:42;0.57;;;0.40;;
16460;SDS011;8341;42.048;24.650;2023-04-03T01:58:09;0.40;;;0.40;;
16460;SDS011;8341;42.048;24.650;2023-04-03T02:00:36;1.50;;;1.33;;
16460;SDS011;8341;42.048;24.650;2023-04-03T02:03:03;3.22;;;2.75;;
16460;SDS011;8341;42.048;24.650;2023-04-03T02:05:30;11.30;;;8.80;;
16460;SDS011;8341;42.048;24.650;2023-04-03T02:07:58;11.57;;;9.23;;
16460;SDS011;8341;42.048;24.650;2023-04-03T02:10:26;11.07;;;8.27;;
16460;SDS011;8341;42.048;24.650;2023-04-03T02:12:53;0.90;;;0.70;;
16460;SDS011;8341;42.048;24.650;2023-04-03T02:15:20;6.28;;;3.63;;
16460;SDS011;8341;42.048;24.650;2023-04-03T02:17:47;11.05;;;8.68;;
16460;SDS011;8341;42.048;24.650;2023-04-03T02:20:14;7.65;;;5.15;;
16460;SDS011;8341;42.048;24.650;2023-04-03T02:22:41;15.15;;;10.93;;
16460;SDS011;8341;42.048;24.650;2023-04-03T02:25:10;2.05;;;1.85;;
16460;SDS011;8341;42.048;24.650;2023-04-03T02:27:37;2.90;;;2.55;;
16460;SDS011;8341;42.048;24.650;2023-04-03T02:30:05;12.32;;;8.98;;
16460;SDS011;8341;42.048;24.650;2023-04-03T02:32:34;1.70;;;1.60;;
16460;SDS011;8341;42.048;24.650;2023-04-03T02:35:01;20.38;;;15.73;;
16460;SDS011;8341;42.048;24.650;2023-04-03T02:37:28;3.05;;;1.67;;
16460;SDS011;8341;42.048;24.650;2023-04-03T02:39:55;3.47;;;2.70;;
16460;SDS011;8341;42.048;24.650;2023-04-03T02:42:24;2.53;;;1.95;;
16460;SDS011;8341;42.048;24.650;2023-04-03T02:44:51;2.45;;;2.03;;
16460;SDS011;8341;42.048;24.650;2023-04-03T02:47:18;1.48;;;0.60;;
16460;SDS011;8341;42.048;24.650;2023-04-03T02:49:45;5.25;;;4.53;;
16460;SDS011;8341;42.048;24.650;2023-04-03T02:52:13;2.00;;;1.83;;
16460;SDS011;8341;42.048;24.650;2023-04-03T02:54:40;10.63;;;7.03;;
16460;SDS011;8341;42.048;24.650;2023-04-03T02:57:07;6.72;;;5.28;;
16460;SDS011;8341;42.048;24.650;2023-04-03T02:59:36;2.08;;;1.05;;
16460;SDS011;8341;42.048;24.650;2023-04-03T03:02:05;2.92;;;1.77;;
16460;SDS011;8341;42.048;24.650;2023-04-03T03:04:32;0.82;;;0.60;;
16460;SDS011;8341;42.048;24.650;2023-04-03T03:06:59;2.17;;;1.98;;
16460;SDS011;8341;42.048;24.650;2023-04-03T03:09:26;0.70;;;0.70;;
16460;SDS011;8341;42.048;24.650;2023-04-03T03:11:54;1.77;;;1.35;;
16460;SDS011;8341;42.048;24.650;2023-04-03T03:14:21;1.10;;;1.00;;
16460;SDS011;8341;42.048;24.650;2023-04-03T03:16:50;1.60;;;1.50;;
16460;SDS011;8341;42.048;24.650;2023-04-03T03:19:17;2.65;;;1.65;;
16460;SDS011;8341;42.048;24.650;2023-04-03T03:21:44;1.85;;;1.45;;
16460;SDS011;8341;42.048;24.650;2023-04-03T03:24:10;7.60;;;5.72;;
16460;SDS011;8341;42.048;24.650;2023-04-03T03:26:38;3.08;;;1.10;;
16460;SDS011;8341;42.048;24.650;2023-04-03T03:29:05;6.25;;;4.32;;
16460;SDS011;8341;42.048;24.650;2023-04-03T03:31:32;5.03;;;3.15;;
16460;SDS011;8341;42.048;24.650;2023-04-03T03:34:00;9.20;;;4.82;;
16460;SDS011;8341;42.048;24.650;2023-04-03T03:36:27;6.32;;;3.72;;
16460;SDS011;8341;42.048;24.650;2023-04-03T03:38:55;1.30;;;1.10;;
16460;SDS011;8341;42.048;24.650;2023-04-03T03:41:22;5.35;;;3.65;;
16460;SDS011;8341;42.048;24.650;2023-04-03T03:43:49;1.50;;;1.17;;
16460;SDS011;8341;42.048;24.650;2023-04-03T03:46:16;3.50;;;2.92;;
16460;SDS011;8341;42.048;24.650;2023-04-03T03:48:43;1.83;;;0.70;;
16460;SDS011;8341;42.048;24.650;2023-04-03T03:51:12;1.88;;;0.63;;
16460;SDS011;8341;42.048;24.650;2023-04-03T03:53:39;1.48;;;1.00;;
16460;SDS011;8341;42.048;24.650;2023-04-03T03:56:06;1.40;;;0.82;;
16460;SDS011;8341;42.048;24.650;2023-04-03T03:58:33;2.67;;;1.58;;
16460;SDS011;8341;42.048;24.650;2023-04-03T04:01:01;3.83;;;1.30;;
16460;SDS011;8341;42.048;24.650;2023-04-03T04:03:28;2.38;;;1.92;;
16460;SDS011;8341;42.048;24.650;2023-04-03T04:05:55;2.45;;;1.85;;
16460;SDS011;8341;42.048;24.650;2023-04-03T04:08:24;3.35;;;1.42;;
16460;SDS011;8341;42.048;24.650;2023-04-03T04:10:51;2.08;;;1.88;;
16460;SDS011;8341;42.048;24.650;2023-04-03T04:13:18;2.03;;;1.52;;
16460;SDS011;8341;42.048;24.650;2023-04-03T04:15:45;2.53;;;1.60;;
16460;SDS011;8341;42.048;24.650;2023-04-03T04:18:12;1.40;;;1.30;;
16460;SDS011;8341;42.048;24.650;2023-04-03T04:20:39;2.90;;;1.73;;
16460;SDS011;8341;42.048;24.650;2023-04-03T04:23:06;2.60;;;1.20;;
16460;SDS011;8341;42.048;24.650;2023-04-03T04:25:35;2.70;;;1.38;;
16460;SDS011;8341;42.048;24.650;2023-04-03T04:28:02;0.80;;;0.80;;
16460;SDS011;8341;42.048;24.650;2023-04-03T04:30:29;1.48;;;1.27;;
16460;SDS011;8341;42.048;24.650;2023-04-03T04:32:56;1.00;;;0.90;;
16460;SDS011;8341;42.048;24.650;2023-04-03T04:35:23;1.20;;;0.80;;
16460;SDS011;8341;42.048;24.650;2023-04-03T04:37:50;1.10;;;1.00;;
16460;SDS011;8341;42.048;24.650;2023-04-03T04:40:17;1.70;;;0.70;;
16460;SDS011;8341;42.048;24.650;2023-04-03T04:42:46;1.73;;;0.70;;
16460;SDS011;8341;42.048;24.650;2023-04-03T04:45:13;0.98;;;0.70;;
16460;SDS011;8341;42.048;24.650;2023-04-03T04:47:40;2.95;;;1.00;;
16460;SDS011;8341;42.048;24.650;2023-04-03T04:50:08;1.20;;;1.02;;
16460;SDS011;8341;42.048;24.650;2023-04-03T04:52:36;1.50;;;1.17;;
16460;SDS011;8341;42.048;24.650;2023-04-03T04:55:04;1.30;;;0.65;;
16460;SDS011;8341;42.048;24.650;2023-04-03T04:57:32;2.67;;;1.70;;
16460;SDS011;8341;42.048;24.650;2023-04-03T05:00:01;1.85;;;1.20;;
16460;SDS011;8341;42.048;24.650;2023-04-03T05:02:29;1.20;;;1.02;;
16460;SDS011;8341;42.048;24.650;2023-04-03T05:04:56;0.70;;;0.70;;
16460;SDS011;8341;42.048;24.650;2023-04-03T05:07:23;0.70;;;0.70;;
16460;SDS011;8341;42.048;24.650;2023-04-03T05:09:50;1.38;;;1.02;;
16460;SDS011;8341;42.048;24.650;2023-04-03T05:12:18;32.10;;;22.77;;
16460;SDS011;8341;42.048;24.650;2023-04-03T05:14:45;8.82;;;7.00;;
16460;SDS011;8341;42.048;24.650;2023-04-03T05:17:13;1.50;;;1.30;;
16460;SDS011;8341;42.048;24.650;2023-04-03T05:19:40;22.60;;;20.50;;
16460;SDS011;8341;42.048;24.650;2023-04-03T05:22:07;4.93;;;4.53;;
16460;SDS011;8341;42.048;24.650;2023-04-03T05:24:35;0.80;;;0.77;;
16460;SDS011;8341;42.048;24.650;2023-04-03T05:27:02;6.30;;;5.72;;
16460;SDS011;8341;42.048;24.650;2023-04-03T05:29:29;36.92;;;23.65;;
16460;SDS011;8341;42.048;24.650;2023-04-03T05:31:56;3.45;;;1.80;;
16460;SDS011;8341;42.048;24.650;2023-04-03T05:34:25;0.68;;;0.68;;
16460;SDS011;8341;42.048;24.650;2023-04-03T05:36:53;1.25;;;1.00;;
16460;SDS011;8341;42.048;24.650;2023-04-03T05:39:20;1.15;;;0.95;;
16460;SDS011;8341;42.048;24.650;2023-04-03T05:41:48;2.05;;;0.60;;
16460;SDS011;8341;42.048;24.650;2023-04-03T05:44:15;2.60;;;2.42;;
16460;SDS011;8341;42.048;24.650;2023-04-03T05:46:42;2.45;;;1.95;;
16460;SDS011;8341;42.048;24.650;2023-04-03T05:49:09;1.55;;;1.30;;
16460;SDS011;8341;42.048;24.650;2023-04-03T05:51:38;2.90;;;1.60;;
16460;SDS011;8341;42.048;24.650;2023-04-03T05:54:08;0.93;;;0.93;;
16460;SDS011;8341;42.048;24.650;2023-04-03T05:56:39;23.00;;;17.05;;
16460;SDS011;8341;42.048;24.650;2023-04-03T05:59:07;2.75;;;2.35;;
16460;SDS011;8341;42.048;24.650;2023-04-03T06:01:34;0.60;;;0.60;;
16460;SDS011;8341;42.048;24.650;2023-04-03T06:04:02;3.08;;;0.95;;
16460;SDS011;8341;42.048;24.650;2023-04-03T06:06:43;0.70;;;0.60;;
16460;SDS011;8341;42.048;24.650;2023-04-03T06:09:11;1.55;;;0.50;;
16460;SDS011;8341;42.048;24.650;2023-04-03T06:11:39;0.40;;;0.40;;
16460;SDS011;8341;42.048;24.650;2023-04-03T06:14:07;2.17;;;1.52;;
16460;SDS011;8341;42.048;24.650;2023-04-03T06:16:34;1.23;;;0.88;;
16460;SDS011;8341;42.048;24.650;2023-04-03T06:19:01;1.35;;;1.00;;
16460;SDS011;8341;42.048;24.650;2023-04-03T06:21:29;1.48;;;1.05;;
16460;SDS011;8341;42.048;24.650;2023-04-03T06:23:57;2.58;;;1.10;;
16460;SDS011;8341;42.048;24.650;2023-04-03T06:26:25;4.15;;;2.63;;
16460;SDS011;8341;42.048;24.650;2023-04-03T06:28:52;5.85;;;4.15;;
16460;SDS011;8341;42.048;24.650;2023-04-03T06:31:19;7.60;;;4.00;;
16460;SDS011;8341;42.048;24.650;2023-04-03T06:33:46;5.68;;;3.75;;
16460;SDS011;8341;42.048;24.650;2023-04-03T06:36:13;5.90;;;3.33;;
16460;SDS011;8341;42.048;24.650;2023-04-03T06:38:44;3.95;;;3.15;;
16460;SDS011;8341;42.048;24.650;2023-04-03T06:41:13;8.07;;;4.10;;
16460;SDS011;8341;42.048;24.650;2023-04-03T06:43:41;9.38;;;4.72;;
16460;SDS011;8341;42.048;24.650;2023-04-03T06:46:11;5.38;;;3.30;;
16460;SDS011;8341;42.048;24.650;2023-04-03T06:48:41;4.03;;;3.03;;
16460;SDS011;8341;42.048;24.650;2023-04-03T06:51:13;11.52;;;3.75;;
16460;SDS011;8341;42.048;24.650;2023-04-03T06:53:45;5.38;;;2.67;;
16460;SDS011;8341;42.048;24.650;2023-04-03T06:56:13;4.78;;;3.25;;
16460;SDS011;8341;42.048;24.650;2023-04-03T06:58:41;5.38;;;3.88;;
16460;SDS011;8341;42.048;24.650;2023-04-03T07:01:09;5.90;;;3.60;;
16460;SDS011;8341;42.048;24.650;2023-04-03T07:03:38;6.50;;;3.60;;
16460;SDS011;8341;42.048;24.650;2023-04-03T07:06:05;6.93;;;3.50;;
16460;SDS011;8341;42.048;24.650;2023-04-03T07:08:33;3.40;;;3.00;;
16460;SDS011;8341;42.048;24.650;2023-04-03T07:11:01;6.68;;;2.83;;
16460;SDS011;8341;42.048;24.650;2023-04-03T07:13:29;4.15;;;3.10;;
16460;SDS011;8341;42.048;24.650;2023-04-03T07:15:56;2.80;;;2.60;;
16460;SDS011;8341;42.048;24.650;2023-04-03T07:18:23;3.42;;;2.13;;
16460;SDS011;8341;42.048;24.650;2023-04-03T07:20:51;3.10;;;2.30;;
16460;SDS011;8341;42.048;24.650;2023-04-03T07:23:18;3.83;;;2.47;;
16460;SDS011;8341;42.048;24.650;2023-04-03T07:25:45;2.97;;;1.80;;
16460;SDS011;8341;42.048;24.650;2023-04-03T07:28:13;5.55;;;2.28;;
16460;SDS011;8341;42.048;24.650;2023-04-03T07:30:43;2.55;;;2.20;;
16460;SDS011;8341;42.048;24.650;2023-04-03T07:33:11;3.28;;;2.15;;
16460;SDS011;8341;42.048;24.650;2023-04-03T07:35:40;2.83;;;2.28;;
16460;SDS011;8341;42.048;24.650;2023-04-03T07:38:07;5.00;;;2.08;;
16460;SDS011;8341;42.048;24.650;2023-04-03T07:40:34;5.30;;;3.38;;
16460;SDS011;8341;42.048;24.650;2023-04-03T07:43:02;7.68;;;3.92;;
16460;SDS011;8341;42.048;24.650;2023-04-03T07:45:30;8.18;;;4.93;;
16460;SDS011;8341;42.048;24.650;2023-04-03T07:48:00;11.68;;;4.30;;
16460;SDS011;8341;42.048;24.650;2023-04-03T07:50:27;8.25;;;5.10;;
16460;SDS011;8341;42.048;24.650;2023-04-03T07:52:55;10.13;;;5.07;;
16460;SDS011;8341;42.048;24.650;2023-04-03T07:55:22;8.23;;;4.60;;
16460;SDS011;8341;42.048;24.650;2023-04-03T07:57:50;11.60;;;5.13;;
16460;SDS011;8341;42.048;24.650;2023-04-03T08:00:17;7.75;;;4.80;;
16460;SDS011;8341;42.048;24.650;2023-04-03T08:02:45;9.98;;;4.55;;
16460;SDS011;8341;42.048;24.650;2023-04-03T08:05:17;9.25;;;4.38;;
16460;SDS011;8341;42.048;24.650;2023-04-03T08:07:45;7.07;;;3.92;;
16460;SDS011;8341;42.048;24.650;2023-04-03T08:10:13;8.10;;;3.65;;
16460;SDS011;8341;42.048;24.650;2023-04-03T08:12:41;7.40;;;3.92;;
16460;SDS011;8341;42.048;24.650;2023-04-03T08:15:08;4.57;;;3.40;;
16460;SDS011;8341;42.048;24.650;2023-04-03T08:17:36;4.13;;;3.40;;
16460;SDS011;8341;42.048;24.650;2023-04-03T08:20:04;4.10;;;3.65;;
16460;SDS011;8341;42.048;24.650;2023-04-03T08:22:34;5.57;;;3.33;;
16460;SDS011;8341;42.048;24.650;2023-04-03T08:25:01;4.63;;;3.22;;
16460;SDS011;8341;42.048;24.650;2023-04-03T08:27:28;4.28;;;3.47;;
16460;SDS011;8341;42.048;24.650;2023-04-03T08:29:55;6.85;;;3.90;;
16460;SDS011;8341;42.048;24.650;2023-04-03T08:32:23;5.53;;;3.88;;
16460;SDS011;8341;42.048;24.650;2023-04-03T08:34:50;5.22;;;3.40;;
16460;SDS011;8341;42.048;24.650;2023-04-03T08:37:17;4.10;;;3.58;;
16460;SDS011;8341;42.048;24.650;2023-04-03T08:39:47;3.47;;;2.60;;
16460;SDS011;8341;42.048;24.650;2023-04-03T08:42:16;4.72;;;2.85;;
16460;SDS011;8341;42.048;24.650;2023-04-03T08:44:54;5.75;;;3.03;;
16460;SDS011;8341;42.048;24.650;2023-04-03T08:47:28;6.43;;;3.33;;
16460;SDS011;8341;42.048;24.650;2023-04-03T08:49:59;5.28;;;2.95;;
16460;SDS011;8341;42.048;24.650;2023-04-03T08:52:30;6.53;;;3.10;;
16460;SDS011;8341;42.048;24.650;2023-04-03T08:55:04;5.68;;;3.92;;
16460;SDS011;8341;42.048;24.650;2023-04-03T08:57:34;5.00;;;3.70;;
16460;SDS011;8341;42.048;24.650;2023-04-03T09:00:06;7.18;;;4.28;;
16460;SDS011;8341;42.048;24.650;2023-04-03T09:02:43;7.55;;;4.57;;
16460;SDS011;8341;42.048;24.650;2023-04-03T09:05:13;8.52;;;4.53;;
16460;SDS011;8341;42.048;24.650;2023-04-03T09:07:42;9.80;;;5.07;;
16460;SDS011;8341;42.048;24.650;2023-04-03T09:10:15;8.85;;;4.43;;
16460;SDS011;8341;42.048;24.650;2023-04-03T09:12:53;7.70;;;4.22;;
16460;SDS011;8341;42.048;24.650;2023-04-03T09:15:26;11.38;;;4.95;;
16460;SDS011;8341;42.048;24.650;2023-04-03T09:17:58;8.43;;;4.78;;
16460;SDS011;8341;42.048;24.650;2023-04-03T09:20:32;10.88;;;4.45;;
16460;SDS011;8341;42.048;24.650;2023-04-03T09:23:20;9.10;;;4.63;;
16460;SDS011;8341;42.048;24.650;2023-04-03T09:25:53;11.63;;;4.90;;
16460;SDS011;8341;42.048;24.650;2023-04-03T09:28:29;7.72;;;4.85;;
16460;SDS011;8341;42.048;24.650;2023-04-03T09:30:57;11.02;;;5.32;;
16460;SDS011;8341;42.048;24.650;2023-04-03T09:33:26;8.10;;;5.70;;
16460;SDS011;8341;42.048;24.650;2023-04-03T09:35:56;8.90;;;5.40;;
16460;SDS011;8341;42.048;24.650;2023-04-03T09:38:23;11.30;;;5.55;;
16460;SDS011;8341;42.048;24.650;2023-04-03T09:40:51;10.75;;;5.28;;
16460;SDS011;8341;42.048;24.650;2023-04-03T09:43:33;9.10;;;5.30;;
16460;SDS011;8341;42.048;24.650;2023-04-03T09:46:17;8.88;;;5.28;;
16460;SDS011;8341;42.048;24.650;2023-04-03T09:48:52;11.18;;;5.10;;
16460;SDS011;8341;42.048;24.650;2023-04-03T09:51:24;10.65;;;5.18;;
16460;SDS011;8341;42.048;24.650;2023-04-03T09:53:52;10.32;;;4.68;;
16460;SDS011;8341;42.048;24.650;2023-04-03T09:56:22;9.35;;;4.82;;
16460;SDS011;8341;42.048;24.650;2023-04-03T09:58:51;12.48;;;5.43;;
16460;SDS011;8341;42.048;24.650;2023-04-03T10:01:34;11.20;;;5.95;;
16460;SDS011;8341;42.048;24.650;2023-04-03T10:04:06;9.18;;;5.50;;
16460;SDS011;8341;42.048;24.650;2023-04-03T10:06:36;14.90;;;6.13;;
16460;SDS011;8341;42.048;24.650;2023-04-03T10:09:06;10.25;;;5.28;;
16460;SDS011;8341;42.048;24.650;2023-04-03T10:11:58;14.63;;;6.25;;
16460;SDS011;8341;42.048;24.650;2023-04-03T10:14:30;7.97;;;5.00;;
16460;SDS011;8341;42.048;24.650;2023-04-03T10:16:59;8.90;;;4.55;;
16460;SDS011;8341;42.048;24.650;2023-04-03T10:19:36;7.35;;;4.50;;
16460;SDS011;8341;42.048;24.650;2023-04-03T10:22:11;6.60;;;4.07;;
16460;SDS011;8341;42.048;24.650;2023-04-03T10:24:48;9.05;;;4.20;;
16460;SDS011;8341;42.048;24.650;2023-04-03T10:27:24;6.40;;;3.97;;
16460;SDS011;8341;42.048;24.650;2023-04-03T10:30:00;10.48;;;6.88;;
16460;SDS011;8341;42.048;24.650;2023-04-03T10:32:42;12.57;;;7.70;;
16460;SDS011;8341;42.048;24.650;2023-04-03T10:35:20;8.23;;;5.35;;
16460;SDS011;8341;42.048;24.650;2023-04-03T10:38:03;8.00;;;4.28;;
16460;SDS011;8341;42.048;24.650;2023-04-03T10:40:39;5.53;;;3.70;;
16460;SDS011;8341;42.048;24.650;2023-04-03T10:43:16;3.65;;;2.00;;
16460;SDS011;8341;42.048;24.650;2023-04-03T10:45:53;1.38;;;0.80;;
16460;SDS011;8341;42.048;24.650;2023-04-03T10:48:33;0.80;;;0.80;;
16460;SDS011;8341;42.048;24.650;2023-04-03T10:51:22;1.13;;;0.85;;
16460;SDS011;8341;42.048;24.650;2023-04-03T10:53:53;1.20;;;1.10;;
16460;SDS011;8341;42.048;24.650;2023-04-03T10:56:30;2.08;;;1.98;;
16460;SDS011;8341;42.048;24.650;2023-04-03T10:59:05;1.85;;;0.80;;
16460;SDS011;8341;42.048;24.650;2023-04-03T11:01:43;1.35;;;0.90;;
16460;SDS011;8341;42.048;24.650;2023-04-03T11:04:12;2.20;;;1.00;;
16460;SDS011;8341;42.048;24.650;2023-04-03T11:06:43;0.80;;;0.80;;
16460;SDS011;8341;42.048;24.650;2023-04-03T11:09:16;1.10;;;1.00;;
16460;SDS011;8341;42.048;24.650;2023-04-03T11:11:49;1.73;;;1.00;;
16460;SDS011;8341;42.048;24.650;2023-04-03T11:14:24;1.52;;;0.80;;
16460;SDS011;8341;42.048;24.650;2023-04-03T11:16:59;1.38;;;1.27;;
16460;SDS011;8341;42.048;24.650;2023-04-03T11:19:34;1.80;;;1.10;;
16460;SDS011;8341;42.048;24.650;2023-04-03T11:22:08;2.08;;;1.20;;
16460;SDS011;8341;42.048;24.650;2023-04-03T11:24:38;1.45;;;1.20;;
16460;SDS011;8341;42.048;24.650;2023-04-03T11:27:08;2.42;;;2.30;;
16460;SDS011;8341;42.048;24.650;2023-04-03T11:29:43;2.72;;;2.30;;
16460;SDS011;8341;42.048;24.650;2023-04-03T11:32:21;1.40;;;1.30;;
16460;SDS011;8341;42.048;24.650;2023-04-03T11:35:04;1.98;;;1.40;;
16460;SDS011;8341;42.048;24.650;2023-04-03T11:37:34;1.80;;;1.70;;
16460;SDS011;8341;42.048;24.650;2023-04-03T11:40:06;1.70;;;1.60;;
16460;SDS011;8341;42.048;24.650;2023-04-03T11:42:45;2.55;;;2.45;;
16460;SDS011;8341;42.048;24.650;2023-04-03T11:45:22;2.60;;;2.00;;
16460;SDS011;8341;42.048;24.650;2023-04-03T11:48:03;1.80;;;1.67;;
16460;SDS011;8341;42.048;24.650;2023-04-03T11:50:37;1.85;;;1.75;;
16460;SDS011;8341;42.048;24.650;2023-04-03T11:53:26;4.15;;;2.65;;
16460;SDS011;8341;42.048;24.650;2023-04-03T11:55:57;3.13;;;2.67;;
16460;SDS011;8341;42.048;24.650;2023-04-03T11:58:39;3.20;;;2.25;;
16460;SDS011;8341;42.048;24.650;2023-04-03T12:01:08;6.75;;;2.47;;
16460;SDS011;8341;42.048;24.650;2023-04-03T12:12:57;3.42;;;2.80;;
16460;SDS011;8341;42.048;24.650;2023-04-03T12:18:37;7.13;;;6.38;;
16460;SDS011;8341;42.048;24.650;2023-04-03T12:21:08;6.15;;;5.53;;
16460;SDS011;8341;42.048;24.650;2023-04-03T12:23:36;4.00;;;3.60;;
16460;SDS011;8341;42.048;24.650;2023-04-03T12:26:24;4.65;;;3.33;;
16460;SDS011;8341;42.048;24.650;2023-04-03T12:28:53;4.40;;;3.47;;
16460;SDS011;8341;42.048;24.650;2023-04-03T12:31:22;4.38;;;4.00;;
16460;SDS011;8341;42.048;24.650;2023-04-03T12:34:01;3.90;;;3.60;;
16460;SDS011;8341;42.048;24.650;2023-04-03T12:36:40;3.85;;;3.42;;
16460;SDS011;8341;42.048;24.650;2023-04-03T12:39:21;3.20;;;3.00;;
16460;SDS011;8341;42.048;24.650;2023-04-03T12:42:11;5.72;;;3.50;;
16460;SDS011;8341;42.048;24.650;2023-04-03T12:44:49;4.20;;;3.80;;
16460;SDS011;8341;42.048;24.650;2023-04-03T12:47:28;4.65;;;4.25;;
16460;SDS011;8341;42.048;24.650;2023-04-03T12:49:59;5.00;;;4.50;;
16460;SDS011;8341;42.048;24.650;2023-04-03T12:52:31;5.57;;;4.97;;
16460;SDS011;8341;42.048;24.650;2023-04-03T12:55:01;5.32;;;4.82;;
16460;SDS011;8341;42.048;24.650;2023-04-03T12:57:30;6.03;;;4.78;;
16460;SDS011;8341;42.048;24.650;2023-04-03T12:59:58;12.18;;;10.88;;
16460;SDS011;8341;42.048;24.650;2023-04-03T13:02:26;7.18;;;5.97;;
16460;SDS011;8341;42.048;24.650;2023-04-03T13:04:55;7.60;;;6.90;;
16460;SDS011;8341;42.048;24.650;2023-04-03T13:07:26;7.65;;;6.32;;
16460;SDS011;8341;42.048;24.650;2023-04-03T13:09:57;6.38;;;5.78;;
16460;SDS011;8341;42.048;24.650;2023-04-03T13:12:26;8.60;;;6.97;;
16460;SDS011;8341;42.048;24.650;2023-04-03T13:14:54;8.30;;;6.05;;
16460;SDS011;8341;42.048;24.650;2023-04-03T13:17:23;8.00;;;7.28;;
16460;SDS011;8341;42.048;24.650;2023-04-03T13:19:51;6.95;;;5.82;;
16460;SDS011;8341;42.048;24.650;2023-04-03T13:22:30;12.55;;;7.80;;
16460;SDS011;8341;42.048;24.650;2023-04-03T13:25:05;21.35;;;14.85;;
16460;SDS011;8341;42.048;24.650;2023-04-03T13:27:35;26.92;;;20.98;;
16460;SDS011;8341;42.048;24.650;2023-04-03T13:30:03;16.77;;;13.68;;
16460;SDS011;8341;42.048;24.650;2023-04-03T13:32:31;12.55;;;10.70;;
16460;SDS011;8341;42.048;24.650;2023-04-03T13:34:59;13.88;;;12.35;;
16460;SDS011;8341;42.048;24.650;2023-04-03T13:37:26;7.40;;;6.70;;
16460;SDS011;8341;42.048;24.650;2023-04-03T13:39:58;7.70;;;6.90;;
16460;SDS011;8341;42.048;24.650;2023-04-03T13:42:29;11.00;;;9.90;;
16460;SDS011;8341;42.048;24.650;2023-04-03T13:45:08;15.50;;;9.43;;
16460;SDS011;8341;42.048;24.650;2023-04-03T13:47:43;13.25;;;8.70;;
16460;SDS011;8341;42.048;24.650;2023-04-03T13:50:15;17.65;;;11.55;;
16460;SDS011;8341;42.048;24.650;2023-04-03T13:52:47;9.77;;;8.77;;
16460;SDS011;8341;42.048;24.650;2023-04-03T13:55:18;9.55;;;8.48;;
16460;SDS011;8341;42.048;24.650;2023-04-03T13:57:54;13.40;;;9.98;;
16460;SDS011;8341;42.048;24.650;2023-04-03T14:00:34;11.38;;;9.18;;
16460;SDS011;8341;42.048;24.650;2023-04-03T14:03:12;15.75;;;11.60;;
16460;SDS011;8341;42.048;24.650;2023-04-03T14:05:40;12.38;;;9.45;;
16460;SDS011;8341;42.048;24.650;2023-04-03T14:08:08;11.73;;;9.02;;
16460;SDS011;8341;42.048;24.650;2023-04-03T14:10:36;9.68;;;8.32;;
16460;SDS011;8341;42.048;24.650;2023-04-03T14:13:03;12.60;;;11.07;;
16460;SDS011;8341;42.048;24.650;2023-04-03T14:15:30;12.13;;;8.88;;
16460;SDS011;8341;42.048;24.650;2023-04-03T14:17:58;14.32;;;10.07;;
16460;SDS011;8341;42.048;24.650;2023-04-03T14:20:26;12.43;;;10.23;;
16460;SDS011;8341;42.048;24.650;2023-04-03T14:22:53;12.93;;;10.70;;
16460;SDS011;8341;42.048;24.650;2023-04-03T14:25:22;13.35;;;11.57;;
16460;SDS011;8341;42.048;24.650;2023-04-03T14:27:51;16.45;;;11.48;;
16460;SDS011;8341;42.048;24.650;2023-04-03T14:30:21;16.65;;;12.82;;
16460;SDS011;8341;42.048;24.650;2023-04-03T14:32:50;18.95;;;14.70;;
16460;SDS011;8341;42.048;24.650;2023-04-03T14:35:18;17.00;;;13.88;;
16460;SDS011;8341;42.048;24.650;2023-04-03T14:37:45;17.95;;;14.32;;
16460;SDS011;8341;42.048;24.650;2023-04-03T14:40:14;16.17;;;13.77;;
16460;SDS011;8341;42.048;24.650;2023-04-03T14:42:44;18.13;;;13.93;;
16460;SDS011;8341;42.048;24.650;2023-04-03T14:45:12;17.48;;;15.15;;
16460;SDS011;8341;42.048;24.650;2023-04-03T14:47:40;20.98;;;17.02;;
16460;SDS011;8341;42.048;24.650;2023-04-03T14:50:12;23.63;;;19.33;;
16460;SDS011;8341;42.048;24.650;2023-04-03T14:52:42;19.30;;;14.88;;
16460;SDS011;8341;42.048;24.650;2023-04-03T14:55:11;26.52;;;19.80;;
16460;SDS011;8341;42.048;24.650;2023-04-03T14:57:38;28.88;;;23.27;;
16460;SDS011;8341;42.048;24.650;2023-04-03T15:00:11;36.83;;;27.02;;
16460;SDS011;8341;42.048;24.650;2023-04-03T15:02:40;31.08;;;24.20;;
16460;SDS011;8341;42.048;24.650;2023-04-03T15:05:08;36.10;;;28.50;;
16460;SDS011;8341;42.048;24.650;2023-04-03T15:07:38;33.85;;;25.63;;
16460;SDS011;8341;42.048;24.650;2023-04-03T15:10:14;42.20;;;29.77;;
16460;SDS011;8341;42.048;24.650;2023-04-03T15:12:43;62.63;;;39.75;;
16460;SDS011;8341;42.048;24.650;2023-04-03T15:15:13;65.45;;;40.85;;
16460;SDS011;8341;42.048;24.650;2023-04-03T15:17:41;39.97;;;27.23;;